Архив погоды в Биробиджане

Метеограмма Биробиджан
Суббота, 21 Апреля
Время местн. Темп Ветер Видим Явления Облачность нижн/средн/верх Атм. давл. Влжн Точка росы ВНГО R Сост. почвы Tg s
Напр Скр Прв ур.ст ур.м изм
22:00 +9.3° С-З 2 - 20 км - ясно 758 765 +3.1 26% -9.4° более 2.5 км - - - -
19:00 +13.6° С,С-З 4 13 более 50 км - незначительная облачность 754 762 +2 17% -11.2° более 2.5 км 0 - - -
16:00 +15.7° С,С-З 4 11 более 50 км - незначительная облачность 752 760 +0.6 14% -11.7° более 2.5 км - - - -
13:00 +14.1° С-З 4 14 более 50 км - переменная облачность 752 759 +1.5 16% -11.1° более 2.5 км - - - -
10:00 +10.4° С 6 14 более 50 км небо без изменений {ливневые осадки} облачно 750 758 +2.7 25% -8.6° более 2.5 км - - - -
07:00 +9° С-З 6 11 10 км небо без изменений {ливневые осадки} облачно 748 755 +1.6 56% +0.8° более 2.5 км 0.6 Влажная (без луж) +6° -
04:00 +10.2° С,С-З 2 - 10 км слабый ливневый дождь облачно 746 753 +0.8 81% +7.1° 1 км - - - -
01:00 +12.8° З,Ю-З 5 12 10 км - облачно 745 752 -1.3 77% +8.8° 1 км - - - -
Пятница, 20 Апреля
Время местн. Темп Ветер Видим Явления Облачность нижн/средн/верх Атм. давл. Влжн Точка росы ВНГО R Сост. почвы Tg s
Напр Скр Прв ур.ст ур.м изм
22:00 +15.5° Ю,Ю-З 6 10 10 км - облачно 746 753 -0.2 58% +7.3° 1 км - - - -
19:00 +18.4° Ю-З 2 - 10 км - преимущественно облачно 747 754 -1.1 35% +2.8° 1 км 0 - - -
16:00 +20.3° Ю,Ю-З 5 11 10 км - преимущественно облачно 748 755 -2.2 28% +1.3° 1 км - - - -
13:00 +21.6° З 4 - 10 км - облачно с прояснениями 750 757 -1.6 24% +0.3° более 2.5 км - - - -
10:00 +13.5° С 1 - 10 км - облачно 751 759 +0.2 42% +0.9° более 2.5 км - - - -
07:00 +7.7° С,С-В 1 - 4 км мгла облачно 751 759 +0.4 62% +0.9° более 2.5 км 0 Влажная (без луж) +3° -
04:00 +9.6° Ю,Ю-З 2 - 20 км - облачно 751 758 +0.1 62% +2.7° более 2.5 км - - - -
01:00 +8.9° Ю 2 - 20 км - облачно 751 758 +0.1 66% +2.8° более 2.5 км - - - -
Четверг, 19 Апреля
Время местн. Темп Ветер Видим Явления Облачность нижн/средн/верх Атм. давл. Влжн Точка росы ВНГО R Сост. почвы Tg s
Напр Скр Прв ур.ст ур.м изм
22:00 +9.6° Ю,Ю-З 3 - 20 км - ясно 751 758 +1.9 65% +3.3° более 2.5 км - - - -
19:00 +17.6° Ю 2 - 20 км - ясно 749 756 -0.3 40% +3.8° более 2.5 км 0 - - -
16:00 +17° Ю 2 - 10 км - облачно 749 756 -1.4 40% +3.4° 1 км - - - -
13:00 +13.8° С 1 - 10 км - облачно 751 758 +0.1 52% +4° 1 км - - - -
10:00 +9.5° С-В 1 - 10 км - облачно 751 758 +0.6 46% -1.6° более 2.5 км - - - -
07:00 +3.4° С-З 1 - 10 км - преимущественно облачно 750 757 +0.8 48% -6.5° 1 км 0 Влажная (без луж) +1° -
04:00 +2.8° С,С-В 2 - 20 км - ясно 749 757 +0.3 47% -7.3° более 2.5 км - - - -
01:00 +5.6° Ю,Ю-З 1 - 20 км - ясно 749 756 +0.6 42% -6.4° более 2.5 км - - - -
Среда, 18 Апреля
Время местн. Темп Ветер Видим Явления Облачность нижн/средн/верх Атм. давл. Влжн Точка росы ВНГО R Сост. почвы Tg s
Напр Скр Прв ур.ст ур.м изм
22:00 +7.9° З 2 - 20 км - ясно 748 756 +1.1 37% -6° более 2.5 км - - - -
19:00 +18.2° З,С-З 2 - 20 км - преимущественно облачно 747 754 +0.3 16% -8.1° более 2.5 км 0.1 - - -